Time;durP1;ratioP1;P1;durP2;ratioP2;P2;SDS_P1;SDS_P2;PMS_P1;PMS_P2;Temp;Humidity;BMP_temperature;BMP_pressure;BME280_temperature;BME280_humidity;BME280_pressure;Samples;Min_cycle;Max_cycle;Signal;HPM_P1;HPM_P2
2023/08/07 00:00:47;;;;;;;3.40;0.90;;;15.50;99.90;;;;;;5068190;28;20201;-76
2023/08/07 00:03:18;;;;;;;2.65;0.80;;;15.50;99.90;;;;;;5056928;28;20232;-75
2023/08/07 00:05:51;;;;;;;4.20;0.98;;;15.60;99.90;;;;;;5057597;28;20225;-76
2023/08/07 00:08:22;;;;;;;2.08;0.70;;;15.60;99.90;;;;;;5070798;28;20322;-75
2023/08/07 00:10:53;;;;;;;3.20;0.50;;;15.60;99.90;;;;;;5073448;28;20606;-73
2023/08/07 00:13:23;;;;;;;2.55;0.63;;;15.60;99.90;;;;;;5062334;28;20204;-74
2023/08/07 00:15:54;;;;;;;3.28;0.65;;;15.60;99.90;;;;;;5073098;28;20232;-74
2023/08/07 00:18:25;;;;;;;1.20;0.50;;;15.60;99.90;;;;;;5072901;28;20193;-74
2023/08/07 00:20:57;;;;;;;1.77;0.55;;;15.60;99.90;;;;;;5073563;28;20191;-74
2023/08/07 00:23:28;;;;;;;3.65;1.20;;;15.60;99.90;;;;;;5073490;28;20211;-74
2023/08/07 00:25:59;;;;;;;2.92;0.90;;;15.60;99.90;;;;;;5073470;28;20537;-75
2023/08/07 00:28:30;;;;;;;4.07;0.55;;;15.70;99.90;;;;;;5073170;28;20203;-74
2023/08/07 00:31:01;;;;;;;0.70;0.40;;;15.70;99.90;;;;;;5073181;28;20254;-74
2023/08/07 00:33:31;;;;;;;0.77;0.30;;;15.80;99.90;;;;;;5056729;28;20318;-73
2023/08/07 00:36:04;;;;;;;1.38;0.32;;;16.00;99.90;;;;;;5072019;28;20220;-75
2023/08/07 00:38:35;;;;;;;1.80;0.40;;;16.10;99.90;;;;;;5073325;28;20528;-74
2023/08/07 00:41:07;;;;;;;1.90;0.40;;;16.20;99.90;;;;;;5073188;28;20559;-74
2023/08/07 00:43:38;;;;;;;1.60;0.45;;;16.40;99.90;;;;;;5071470;28;20196;-74
2023/08/07 00:46:09;;;;;;;2.13;0.50;;;16.50;99.90;;;;;;5071345;28;20204;-74
2023/08/07 00:48:39;;;;;;;1.10;0.50;;;16.50;99.90;;;;;;5073049;28;20709;-74
2023/08/07 00:51:12;;;;;;;2.45;0.35;;;16.40;99.90;;;;;;5073128;28;20193;-73
2023/08/07 00:53:44;;;;;;;1.15;0.30;;;16.40;99.90;;;;;;5073195;28;20197;-74
2023/08/07 00:56:15;;;;;;;2.30;0.50;;;16.40;99.90;;;;;;5070978;28;20236;-73
2023/08/07 00:58:46;;;;;;;1.15;0.70;;;16.60;99.90;;;;;;5053639;28;20196;-74
2023/08/07 01:01:17;;;;;;;1.33;0.47;;;16.80;99.90;;;;;;5053078;28;20668;-74
2023/08/07 01:03:48;;;;;;;4.13;0.50;;;17.00;99.90;;;;;;5052756;28;20243;-74
2023/08/07 01:06:20;;;;;;;0.82;0.40;;;17.00;99.90;;;;;;5053103;28;20197;-74
2023/08/07 01:08:51;;;;;;;2.88;0.60;;;16.90;99.90;;;;;;5052765;28;20221;-75
2023/08/07 01:11:30;;;;;;;2.22;0.43;;;16.80;99.90;;;;;;5052906;28;20713;-74
2023/08/07 01:14:20;;;;;;;4.20;0.98;;;16.80;99.90;;;;;;5052647;28;20189;-74
2023/08/07 01:16:54;;;;;;;3.38;0.82;;;16.70;99.90;;;;;;5052603;28;20209;-74
2023/08/07 01:19:28;;;;;;;2.17;0.85;;;16.60;99.90;;;;;;5061995;28;20212;-74
2023/08/07 01:22:14;;;;;;;2.75;0.70;;;16.50;99.90;;;;;;5063486;28;20655;-74
2023/08/07 01:24:45;;;;;;;1.75;0.55;;;16.40;99.90;;;;;;5067346;28;20618;-74
2023/08/07 01:27:35;;;;;;;2.92;0.60;;;16.30;99.90;;;;;;5053094;28;20197;-74
2023/08/07 01:30:15;;;;;;;2.65;0.70;;;16.20;99.90;;;;;;5052862;28;20608;-73
2023/08/07 01:33:06;;;;;;;1.90;1.20;;;16.20;99.90;;;;;;5053686;28;20188;-73
2023/08/07 01:35:43;;;;;;;19.92;14.05;;;16.10;99.90;;;;;;5052588;28;20214;-73
2023/08/07 01:38:17;;;;;;;14.68;8.90;;;16.00;99.90;;;;;;5052739;28;20221;-71
2023/08/07 01:40:49;;;;;;;2.00;0.70;;;16.00;99.90;;;;;;5054420;28;20185;-75
2023/08/07 01:43:20;;;;;;;2.42;1.73;;;16.00;99.90;;;;;;5066779;28;20268;-74
2023/08/07 01:45:51;;;;;;;2.33;1.20;;;15.90;99.90;;;;;;5077013;28;20193;-81
2023/08/07 01:48:22;;;;;;;3.40;0.90;;;15.90;99.90;;;;;;5076410;28;20600;-75
2023/08/07 01:50:55;;;;;;;1.70;0.90;;;15.90;99.90;;;;;;5074555;28;20633;-74
2023/08/07 01:53:28;;;;;;;4.25;1.50;;;15.90;99.90;;;;;;5076077;28;20246;-74
2023/08/07 01:55:58;;;;;;;27.98;20.10;;;15.90;99.90;;;;;;5076218;28;20673;-74
2023/08/07 01:58:29;;;;;;;2.60;1.65;;;15.90;99.90;;;;;;5076082;28;20296;-74
2023/08/07 02:01:00;;;;;;;4.10;2.80;;;15.80;99.90;;;;;;5065781;28;20190;-74
2023/08/07 02:03:31;;;;;;;2.58;1.13;;;15.80;99.90;;;;;;5065473;28;20237;-74
2023/08/07 02:06:02;;;;;;;4.40;2.58;;;15.80;99.90;;;;;;5056315;28;20279;-74
2023/08/07 02:08:35;;;;;;;5.60;3.38;;;15.80;99.90;;;;;;5065192;28;20274;-74
2023/08/07 02:11:05;;;;;;;5.70;2.28;;;15.80;99.90;;;;;;5075978;28;20189;-74
2023/08/07 02:13:36;;;;;;;1.63;1.05;;;15.90;99.90;;;;;;5066431;28;20193;-74
2023/08/07 02:16:07;;;;;;;2.25;0.52;;;15.90;99.90;;;;;;5057055;28;20692;-74
2023/08/07 02:18:38;;;;;;;2.60;0.68;;;15.90;99.90;;;;;;5066190;28;20551;-74
2023/08/07 02:21:08;;;;;;;1.98;1.00;;;15.80;99.90;;;;;;5055778;28;20190;-74
2023/08/07 02:23:41;;;;;;;2.65;0.82;;;15.80;99.90;;;;;;5055741;28;20197;-74
2023/08/07 02:26:12;;;;;;;1.05;0.65;;;15.90;99.90;;;;;;5069421;28;20200;-74
2023/08/07 02:28:43;;;;;;;2.40;1.08;;;15.90;99.90;;;;;;5074418;28;20189;-74
2023/08/07 02:31:14;;;;;;;0.90;0.60;;;16.00;99.90;;;;;;5067967;28;20181;-74
2023/08/07 02:33:44;;;;;;;1.08;0.50;;;16.00;99.90;;;;;;5058725;28;20190;-74
2023/08/07 02:36:15;;;;;;;1.90;0.75;;;15.90;99.90;;;;;;5056271;28;20220;-73
2023/08/07 02:38:48;;;;;;;1.65;0.50;;;15.90;99.90;;;;;;5055589;28;20198;-74
2023/08/07 02:41:18;;;;;;;1.92;0.50;;;15.90;99.90;;;;;;5055408;28;20192;-74
2023/08/07 02:43:49;;;;;;;3.45;0.73;;;15.90;99.90;;;;;;5055610;28;20190;-75
2023/08/07 02:46:20;;;;;;;1.02;0.57;;;16.00;99.90;;;;;;5054825;28;20629;-74
2023/08/07 02:48:50;;;;;;;1.08;0.60;;;16.00;99.90;;;;;;5054750;28;20264;-74
2023/08/07 02:51:21;;;;;;;1.10;0.40;;;16.00;99.90;;;;;;5054800;28;20528;-75
2023/08/07 02:53:54;;;;;;;1.05;0.40;;;16.00;99.90;;;;;;5055372;28;20190;-74
2023/08/07 02:56:25;;;;;;;2.08;0.40;;;16.10;99.90;;;;;;5055136;28;20213;-74
2023/08/07 02:58:58;;;;;;;1.33;0.50;;;16.20;99.90;;;;;;5058442;28;20641;-75
2023/08/07 03:01:29;;;;;;;5.05;1.42;;;16.30;99.90;;;;;;5078948;28;20211;-75
2023/08/07 03:04:00;;;;;;;0.73;0.30;;;16.50;99.90;;;;;;5074854;28;20235;-74
2023/08/07 03:06:30;;;;;;;1.80;0.47;;;16.40;99.90;;;;;;5055793;28;20285;-75
2023/08/07 03:09:03;;;;;;;3.15;0.40;;;16.60;99.90;;;;;;5054501;28;20229;-75
2023/08/07 03:11:34;;;;;;;1.73;0.40;;;16.70;99.90;;;;;;5054832;28;20189;-74
2023/08/07 03:14:05;;;;;;;0.85;0.30;;;16.80;99.90;;;;;;5055228;28;20192;-75
2023/08/07 03:16:35;;;;;;;2.47;0.43;;;16.80;99.90;;;;;;5054700;28;20221;-75
2023/08/07 03:19:06;;;;;;;0.20;0.20;;;16.90;99.90;;;;;;5068287;28;20181;-74
2023/08/07 03:21:37;;;;;;;1.38;0.40;;;16.90;99.90;;;;;;5074748;28;20193;-75
2023/08/07 03:24:10;;;;;;;0.68;0.20;;;17.00;99.90;;;;;;5074437;28;20189;-75
2023/08/07 03:26:41;;;;;;;0.85;0.40;;;16.80;99.90;;;;;;5074602;28;20595;-75
2023/08/07 03:29:11;;;;;;;0.32;0.22;;;16.80;99.90;;;;;;5070289;28;20562;-75
2023/08/07 03:31:42;;;;;;;1.40;0.50;;;16.80;99.90;;;;;;5054465;28;20221;-75
2023/08/07 03:34:13;;;;;;;1.95;0.30;;;16.80;99.90;;;;;;5055595;28;20193;-75
2023/08/07 03:36:44;;;;;;;1.70;0.35;;;16.80;99.90;;;;;;5054114;28;20214;-75
2023/08/07 03:39:16;;;;;;;3.70;0.40;;;16.70;99.90;;;;;;5054305;28;20201;-75
2023/08/07 03:41:47;;;;;;;0.35;0.30;;;16.70;99.90;;;;;;5054690;28;20227;-74
2023/08/07 03:44:18;;;;;;;1.23;0.40;;;16.70;99.90;;;;;;5053993;28;20194;-75
2023/08/07 03:46:48;;;;;;;1.33;0.20;;;16.60;99.90;;;;;;5054178;28;20231;-75
2023/08/07 03:49:19;;;;;;;1.27;0.55;;;16.60;99.90;;;;;;5054701;28;20193;-74
2023/08/07 03:51:50;;;;;;;2.22;0.38;;;16.60;99.90;;;;;;5053847;28;20642;-74
2023/08/07 03:54:22;;;;;;;0.52;0.20;;;16.60;99.90;;;;;;5053554;28;20276;-75
2023/08/07 03:56:53;;;;;;;1.70;0.50;;;16.70;99.90;;;;;;5054130;28;20677;-75
2023/08/07 03:59:24;;;;;;;0.65;0.30;;;16.70;99.90;;;;;;5053781;28;20210;-75
2023/08/07 04:01:55;;;;;;;0.52;0.32;;;16.80;99.90;;;;;;5053956;28;20586;-75
2023/08/07 04:04:25;;;;;;;0.30;0.30;;;16.70;99.90;;;;;;5052774;28;20192;-75
2023/08/07 04:06:56;;;;;;;0.57;0.40;;;16.70;99.90;;;;;;5053831;28;20193;-75
2023/08/07 04:09:29;;;;;;;2.05;0.60;;;16.60;99.90;;;;;;5053616;28;20234;-75
2023/08/07 04:12:00;;;;;;;0.63;0.47;;;16.60;99.90;;;;;;5053162;28;20194;-74
2023/08/07 04:14:31;;;;;;;1.02;0.60;;;16.50;99.90;;;;;;5053390;28;20193;-74
2023/08/07 04:17:02;;;;;;;1.48;0.50;;;16.50;99.90;;;;;;5053601;28;20217;-74
2023/08/07 04:19:32;;;;;;;2.38;0.57;;;16.50;99.90;;;;;;5053614;28;20613;-74
2023/08/07 04:22:03;;;;;;;1.42;0.40;;;16.40;99.90;;;;;;5053195;28;20197;-74
2023/08/07 04:24:36;;;;;;;2.05;0.55;;;16.40;99.90;;;;;;5052994;28;20196;-74
2023/08/07 04:27:08;;;;;;;2.00;0.55;;;16.30;99.90;;;;;;5053640;28;20194;-74
2023/08/07 04:29:38;;;;;;;3.00;0.52;;;16.20;99.90;;;;;;5053364;28;20247;-74
2023/08/07 04:32:10;;;;;;;2.15;0.63;;;16.10;99.90;;;;;;5054465;28;20193;-74
2023/08/07 04:34:40;;;;;;;0.55;0.40;;;16.00;99.90;;;;;;5054072;28;20192;-74
2023/08/07 04:37:11;;;;;;;2.05;0.60;;;16.00;99.90;;;;;;5052982;28;20221;-74
2023/08/07 04:39:44;;;;;;;1.20;0.50;;;16.00;99.90;;;;;;5067645;28;20485;-74
2023/08/07 04:42:15;;;;;;;2.17;0.50;;;16.00;99.90;;;;;;5073370;28;20193;-75
2023/08/07 04:44:46;;;;;;;1.42;0.50;;;15.90;99.90;;;;;;5073948;28;20279;-74
2023/08/07 04:47:16;;;;;;;0.43;0.35;;;15.90;99.90;;;;;;5073720;28;20254;-74
2023/08/07 04:49:47;;;;;;;2.90;0.60;;;15.90;99.90;;;;;;5071943;28;20189;-74
2023/08/07 04:52:18;;;;;;;1.48;0.57;;;15.90;99.90;;;;;;5063231;28;20284;-74
2023/08/07 04:54:51;;;;;;;1.38;0.50;;;16.10;99.90;;;;;;5071408;28;20268;-74
2023/08/07 04:57:21;;;;;;;2.05;0.45;;;16.20;99.90;;;;;;5072108;28;20223;-75
2023/08/07 04:59:52;;;;;;;1.80;0.50;;;16.20;99.90;;;;;;5072497;28;20200;-74
2023/08/07 05:02:23;;;;;;;1.10;0.55;;;16.30;99.90;;;;;;5072888;28;20601;-75
2023/08/07 05:04:54;;;;;;;2.28;0.55;;;16.30;99.90;;;;;;5072890;28;20196;-74
2023/08/07 05:07:25;;;;;;;1.15;0.40;;;16.30;99.90;;;;;;5072458;28;20193;-74
2023/08/07 05:09:59;;;;;;;1.55;0.35;;;16.60;99.90;;;;;;5072777;28;20195;-74
2023/08/07 05:12:30;;;;;;;0.75;0.32;;;16.40;99.90;;;;;;5072946;28;20211;-74
2023/08/07 05:15:00;;;;;;;0.93;0.35;;;16.30;99.90;;;;;;5074964;28;20196;-74
2023/08/07 05:17:31;;;;;;;1.88;0.47;;;16.30;99.90;;;;;;5076886;28;20216;-74
2023/08/07 05:20:02;;;;;;;1.52;0.50;;;16.20;99.90;;;;;;5065170;28;20202;-74
2023/08/07 05:22:33;;;;;;;0.38;0.30;;;16.10;99.90;;;;;;5073080;28;20192;-74
2023/08/07 05:25:06;;;;;;;0.57;0.40;;;16.00;99.90;;;;;;5089712;28;20192;-74
2023/08/07 05:27:37;;;;;;;0.32;0.32;;;15.90;99.90;;;;;;5076838;28;20189;-74
2023/08/07 05:30:08;;;;;;;1.33;0.50;;;15.80;99.90;;;;;;5076848;28;20207;-73
2023/08/07 05:32:40;;;;;;;1.10;0.40;;;15.70;99.90;;;;;;5072164;28;20185;-73
2023/08/07 05:35:11;;;;;;;1.85;0.40;;;15.70;99.90;;;;;;5071162;28;20193;-74
2023/08/07 05:37:42;;;;;;;0.65;0.32;;;15.70;99.90;;;;;;5069629;28;20586;-73
2023/08/07 05:40:15;;;;;;;1.60;0.50;;;15.70;99.90;;;;;;5056690;28;20638;-73
2023/08/07 05:42:45;;;;;;;0.98;0.40;;;15.70;99.90;;;;;;5055414;28;20194;-73
2023/08/07 05:45:16;;;;;;;0.65;0.30;;;15.60;99.90;;;;;;5056715;28;20190;-72
2023/08/07 05:47:47;;;;;;;0.60;0.40;;;15.60;99.90;;;;;;5056430;28;20197;-72
2023/08/07 05:50:17;;;;;;;1.67;0.50;;;15.60;99.90;;;;;;5056425;28;20664;-72
2023/08/07 05:52:48;;;;;;;0.50;0.40;;;15.60;99.90;;;;;;5057402;28;20653;-73
2023/08/07 05:55:21;;;;;;;0.77;0.30;;;15.60;99.90;;;;;;5071008;28;20203;-72
2023/08/07 05:57:52;;;;;;;0.85;0.43;;;15.50;99.90;;;;;;5076168;28;20224;-72
2023/08/07 06:00:23;;;;;;;1.48;0.52;;;15.50;99.90;;;;;;5076226;28;20203;-72
2023/08/07 06:02:53;;;;;;;0.75;0.65;;;15.40;99.90;;;;;;5075995;28;20255;-73
2023/08/07 06:05:24;;;;;;;2.70;0.60;;;15.50;99.90;;;;;;5059250;28;20243;-73
2023/08/07 06:07:55;;;;;;;2.65;0.77;;;15.50;99.90;;;;;;5056251;28;20233;-73
2023/08/07 06:10:28;;;;;;;2.25;0.60;;;15.40;99.90;;;;;;5056376;28;20190;-73
2023/08/07 06:12:58;;;;;;;2.53;0.80;;;15.40;99.90;;;;;;5064317;28;20185;-73
2023/08/07 06:15:29;;;;;;;4.20;0.88;;;15.40;99.90;;;;;;5075965;28;20189;-73
2023/08/07 06:18:00;;;;;;;0.70;0.40;;;15.30;99.90;;;;;;5075815;28;20576;-73
2023/08/07 06:20:30;;;;;;;1.80;0.80;;;15.20;99.90;;;;;;5074343;28;20189;-73
2023/08/07 06:23:01;;;;;;;1.33;0.70;;;15.20;99.90;;;;;;5075094;28;20200;-73
2023/08/07 06:25:34;;;;;;;2.47;0.70;;;15.20;99.90;;;;;;5075805;28;20189;-73
2023/08/07 06:28:04;;;;;;;1.02;0.52;;;15.10;99.90;;;;;;5075526;28;20189;-73
2023/08/07 06:30:35;;;;;;;1.70;0.50;;;15.10;99.90;;;;;;5075129;28;20196;-73
2023/08/07 06:33:06;;;;;;;1.73;0.70;;;15.00;99.90;;;;;;5075326;28;20189;-73
2023/08/07 06:35:42;;;;;;;0.43;0.40;;;15.00;99.90;;;;;;5075817;28;20185;-73
2023/08/07 06:38:13;;;;;;;0.98;0.60;;;15.00;99.90;;;;;;5075725;28;20703;-73
2023/08/07 06:40:47;;;;;;;0.50;0.50;;;15.00;99.90;;;;;;5075604;28;20195;-73
2023/08/07 06:43:17;;;;;;;2.35;0.50;;;14.90;99.90;;;;;;5075652;28;20587;-73
2023/08/07 06:45:52;;;;;;;0.57;0.38;;;14.80;99.90;;;;;;5075547;28;20189;-73
2023/08/07 06:48:22;;;;;;;1.70;0.50;;;14.80;99.90;;;;;;5075166;28;20203;-72
2023/08/07 06:50:53;;;;;;;0.98;0.40;;;14.70;99.90;;;;;;5075535;28;20200;-73
2023/08/07 06:53:24;;;;;;;0.95;0.45;;;14.70;99.90;;;;;;5075351;28;20204;-73
2023/08/07 06:55:57;;;;;;;0.60;0.43;;;14.70;99.90;;;;;;5075316;28;20189;-73
2023/08/07 06:58:28;;;;;;;1.58;0.73;;;14.70;99.90;;;;;;5075302;28;20220;-73
2023/08/07 07:00:58;;;;;;;0.60;0.60;;;14.60;99.90;;;;;;5075197;28;20212;-73
2023/08/07 07:03:29;;;;;;;0.93;0.50;;;14.60;99.90;;;;;;5075133;28;20244;-73
2023/08/07 07:06:00;;;;;;;2.00;0.55;;;14.60;99.90;;;;;;5079722;28;20203;-74
2023/08/07 07:08:31;;;;;;;0.73;0.52;;;14.60;99.90;;;;;;5094600;28;20230;-74
2023/08/07 07:11:04;;;;;;;0.88;0.50;;;14.50;99.90;;;;;;5085090;28;20279;-73
2023/08/07 07:13:35;;;;;;;1.92;0.80;;;14.50;99.90;;;;;;5054799;28;20197;-73
2023/08/07 07:16:06;;;;;;;1.42;0.77;;;14.50;99.90;;;;;;5062137;28;20189;-73
2023/08/07 07:18:36;;;;;;;1.60;0.90;;;14.50;99.90;;;;;;5074758;28;20220;-73
2023/08/07 07:21:07;;;;;;;1.00;0.63;;;14.40;99.90;;;;;;5074849;28;20192;-73
2023/08/07 07:23:38;;;;;;;0.82;0.50;;;14.40;99.90;;;;;;5075267;28;20629;-73
2023/08/07 07:26:10;;;;;;;3.35;0.77;;;14.40;99.90;;;;;;5074717;28;20196;-73
2023/08/07 07:28:41;;;;;;;2.53;0.70;;;14.40;99.90;;;;;;5074522;28;20189;-73
2023/08/07 07:31:12;;;;;;;1.77;1.00;;;14.40;99.90;;;;;;5061471;28;20185;-73
2023/08/07 07:33:42;;;;;;;1.95;1.05;;;14.40;99.90;;;;;;5074486;28;20199;-73
2023/08/07 07:36:18;;;;;;;1.33;0.82;;;14.30;99.90;;;;;;5062520;28;20682;-74
2023/08/07 07:38:50;;;;;;;1.88;1.00;;;14.30;99.90;;;;;;5054183;28;20276;-74
2023/08/07 07:41:22;;;;;;;2.28;0.90;;;14.30;99.90;;;;;;5057856;28;20194;-73
2023/08/07 07:43:53;;;;;;;1.60;1.20;;;14.30;99.90;;;;;;5062101;28;20209;-73
2023/08/07 07:46:24;;;;;;;2.40;1.42;;;14.20;99.90;;;;;;5073761;28;20197;-73
2023/08/07 07:48:55;;;;;;;3.17;1.25;;;14.20;99.90;;;;;;5053870;28;20205;-73
2023/08/07 07:51:26;;;;;;;3.00;1.25;;;14.10;99.90;;;;;;5053329;28;20201;-74
2023/08/07 07:53:57;;;;;;;4.28;1.08;;;14.10;99.90;;;;;;5053381;28;20186;-73
2023/08/07 07:56:30;;;;;;;1.15;0.90;;;14.10;99.90;;;;;;5060601;28;20189;-74
2023/08/07 07:59:00;;;;;;;3.08;0.80;;;14.10;99.90;;;;;;5068869;28;20213;-73
2023/08/07 08:01:31;;;;;;;3.50;1.30;;;14.00;99.90;;;;;;5073523;28;20219;-73
2023/08/07 08:04:02;;;;;;;1.67;1.00;;;14.00;99.90;;;;;;5064575;28;20236;-73
2023/08/07 08:06:33;;;;;;;3.53;1.20;;;14.00;99.90;;;;;;5071022;28;20698;-73
2023/08/07 08:09:04;;;;;;;1.73;1.20;;;13.90;99.90;;;;;;5066387;28;20212;-73
2023/08/07 08:11:37;;;;;;;1.85;1.20;;;13.90;99.90;;;;;;5055059;28;20201;-74
2023/08/07 08:14:07;;;;;;;3.05;1.30;;;13.90;99.90;;;;;;5053552;28;20731;-73
2023/08/07 08:16:38;;;;;;;3.88;1.20;;;13.90;99.90;;;;;;5060491;28;20276;-73
2023/08/07 08:19:09;;;;;;;2.13;1.05;;;13.80;99.90;;;;;;5053120;28;20584;-76
2023/08/07 08:21:40;;;;;;;1.75;0.90;;;13.80;99.90;;;;;;5053835;28;20633;-74
2023/08/07 08:24:13;;;;;;;1.58;0.90;;;13.80;99.90;;;;;;5054116;28;20193;-74
2023/08/07 08:26:46;;;;;;;3.15;1.00;;;13.80;99.90;;;;;;5053137;28;20201;-73
2023/08/07 08:29:18;;;;;;;3.53;1.35;;;13.70;99.90;;;;;;5053756;28;20205;-74
2023/08/07 08:31:51;;;;;;;4.40;1.52;;;13.70;99.90;;;;;;5050894;28;20299;-74
2023/08/07 08:34:21;;;;;;;2.20;1.60;;;13.70;99.90;;;;;;5055832;28;20189;-74
2023/08/07 08:36:52;;;;;;;3.75;2.00;;;13.70;99.90;;;;;;5052863;28;20190;-74
2023/08/07 08:39:23;;;;;;;4.00;2.03;;;13.60;99.90;;;;;;5060676;28;20236;-74
2023/08/07 08:41:56;;;;;;;4.75;2.20;;;13.60;99.90;;;;;;5070835;28;20200;-74
2023/08/07 08:44:28;;;;;;;3.80;2.20;;;13.60;99.90;;;;;;5066735;28;20201;-73
2023/08/07 08:47:02;;;;;;;4.05;1.88;;;13.60;99.90;;;;;;5058616;28;20200;-74
2023/08/07 08:49:36;;;;;;;4.05;2.08;;;13.60;99.90;;;;;;5053621;28;20680;-74
2023/08/07 08:52:08;;;;;;;6.13;2.70;;;13.60;99.90;;;;;;5058952;28;20196;-73
2023/08/07 08:54:39;;;;;;;5.05;2.58;;;13.60;99.90;;;;;;5066834;28;20275;-74
2023/08/07 08:57:11;;;;;;;6.63;2.72;;;13.50;99.90;;;;;;5054244;28;20197;-74
2023/08/07 08:59:43;;;;;;;5.85;2.60;;;13.50;99.90;;;;;;5055275;28;20213;-74
2023/08/07 09:02:14;;;;;;;6.93;2.53;;;13.50;99.90;;;;;;5053771;28;20197;-74
2023/08/07 09:04:46;;;;;;;3.55;1.83;;;13.50;99.90;;;;;;5055342;28;20208;-74
2023/08/07 09:07:18;;;;;;;2.83;1.75;;;13.50;99.90;;;;;;5054841;28;20232;-74
2023/08/07 09:09:50;;;;;;;3.25;1.65;;;13.50;99.90;;;;;;5062514;28;20193;-74
2023/08/07 09:12:25;;;;;;;4.85;1.73;;;13.50;99.90;;;;;;5067345;28;20661;-74
2023/08/07 09:15:00;;;;;;;3.83;1.70;;;13.50;99.90;;;;;;5058998;28;20204;-74
2023/08/07 09:17:33;;;;;;;2.80;1.63;;;13.40;99.90;;;;;;5052143;28;20595;-74
2023/08/07 09:20:06;;;;;;;3.90;1.70;;;13.50;99.90;;;;;;5053547;28;20216;-74
2023/08/07 09:22:37;;;;;;;4.07;1.80;;;13.40;99.90;;;;;;5063572;28;20294;-74
2023/08/07 09:25:09;;;;;;;3.40;1.60;;;13.50;99.90;;;;;;5054123;28;20568;-74
2023/08/07 09:27:43;;;;;;;3.55;1.90;;;13.40;99.90;;;;;;5061387;28;20197;-73
2023/08/07 09:30:15;;;;;;;4.78;1.52;;;13.50;99.90;;;;;;5059223;28;20196;-74
2023/08/07 09:32:45;;;;;;;3.28;2.03;;;13.50;99.90;;;;;;5062060;28;20714;-74
2023/08/07 09:35:16;;;;;;;2.28;1.70;;;13.50;99.90;;;;;;5071357;28;20189;-74
2023/08/07 09:37:48;;;;;;;2.60;1.90;;;13.50;99.90;;;;;;5062268;28;20216;-74
2023/08/07 09:40:19;;;;;;;2.45;1.58;;;13.50;99.90;;;;;;5055868;28;20201;-74
2023/08/07 09:42:54;;;;;;;3.85;2.00;;;13.50;99.90;;;;;;5053283;28;20194;-74
2023/08/07 09:45:25;;;;;;;2.20;1.80;;;13.40;99.90;;;;;;5058028;28;20201;-73
2023/08/07 09:48:06;;;;;;;4.85;1.80;;;13.40;99.90;;;;;;5052839;28;20561;-73
2023/08/07 09:50:37;;;;;;;3.58;2.40;;;13.50;99.90;;;;;;5054709;28;20221;-72
2023/08/07 09:53:08;;;;;;;5.40;2.50;;;13.50;99.90;;;;;;5056955;28;20192;-73
2023/08/07 09:55:38;;;;;;;4.80;2.90;;;13.50;99.90;;;;;;5065500;28;20200;-73
2023/08/07 09:58:14;;;;;;;5.32;3.40;;;13.50;99.90;;;;;;5066963;28;20214;-74
2023/08/07 10:00:45;;;;;;;6.88;4.75;;;13.50;99.90;;;;;;5058372;28;20250;-73
2023/08/07 10:03:16;;;;;;;6.72;4.30;;;13.40;99.90;;;;;;5062863;28;20229;-73
2023/08/07 10:05:48;;;;;;;5.82;4.57;;;13.50;99.90;;;;;;5071836;28;20648;-74
2023/08/07 10:08:20;;;;;;;9.07;5.28;;;13.40;99.90;;;;;;5062017;28;20194;-73
2023/08/07 10:10:51;;;;;;;8.25;5.90;;;13.40;99.90;;;;;;5058860;28;20189;-73
2023/08/07 10:13:25;;;;;;;7.90;5.82;;;13.40;99.90;;;;;;5071164;28;20197;-73
2023/08/07 10:15:56;;;;;;;9.43;6.47;;;13.40;99.90;;;;;;5072271;28;20269;-73
2023/08/07 10:18:26;;;;;;;8.20;6.05;;;13.40;99.90;;;;;;5055825;28;20217;-73
2023/08/07 10:20:59;;;;;;;8.95;6.60;;;13.40;99.90;;;;;;5072339;28;20657;-73
2023/08/07 10:23:30;;;;;;;10.57;6.50;;;13.30;99.90;;;;;;5062262;28;20203;-72
2023/08/07 10:26:01;;;;;;;9.68;6.70;;;13.40;99.90;;;;;;5056845;28;20201;-73
2023/08/07 10:28:37;;;;;;;9.70;7.28;;;13.40;99.90;;;;;;5063574;28;20204;-73
2023/08/07 10:31:09;;;;;;;7.72;6.60;;;13.40;99.90;;;;;;5062844;28;20196;-73
2023/08/07 10:33:40;;;;;;;10.95;7.22;;;13.40;99.90;;;;;;5068876;28;20567;-73
2023/08/07 10:36:14;;;;;;;10.30;6.68;;;13.40;99.90;;;;;;5074030;28;20669;-73
2023/08/07 10:38:45;;;;;;;9.23;6.35;;;13.30;99.90;;;;;;5069984;28;20226;-73
2023/08/07 10:41:17;;;;;;;10.85;6.63;;;13.30;99.90;;;;;;5074647;28;20204;-73
2023/08/07 10:43:50;;;;;;;8.85;5.80;;;13.30;99.90;;;;;;5069872;28;20208;-73
2023/08/07 10:46:24;;;;;;;9.35;5.97;;;13.30;99.90;;;;;;5062860;28;20342;-73
2023/08/07 10:48:59;;;;;;;9.50;6.00;;;13.40;99.90;;;;;;5060405;28;20219;-73
2023/08/07 10:51:33;;;;;;;8.38;5.80;;;13.30;99.90;;;;;;5069275;28;20192;-73
2023/08/07 10:54:05;;;;;;;6.90;5.20;;;13.30;99.90;;;;;;5065996;28;20189;-73
2023/08/07 10:56:37;;;;;;;7.65;5.45;;;13.30;99.90;;;;;;5072842;28;20215;-73
2023/08/07 10:59:14;;;;;;;7.45;5.18;;;13.30;99.90;;;;;;5066506;28;20214;-73
2023/08/07 11:01:46;;;;;;;8.80;5.03;;;13.30;99.90;;;;;;5060562;28;20216;-74
2023/08/07 11:04:17;;;;;;;10.13;4.60;;;13.30;99.90;;;;;;5058383;28;20229;-73
2023/08/07 11:06:51;;;;;;;8.27;4.75;;;13.30;99.90;;;;;;5070590;28;20692;-73
2023/08/07 11:09:21;;;;;;;8.52;4.47;;;13.30;99.90;;;;;;5068878;28;20193;-74
2023/08/07 11:11:52;;;;;;;8.48;4.90;;;13.30;99.90;;;;;;5057959;28;20205;-74
2023/08/07 11:14:25;;;;;;;8.90;5.03;;;13.30;99.90;;;;;;5060184;28;20204;-74
2023/08/07 11:16:56;;;;;;;7.43;4.70;;;13.30;99.90;;;;;;5070250;28;20201;-73
2023/08/07 11:19:27;;;;;;;8.10;4.78;;;13.30;99.90;;;;;;5071246;28;20228;-73
2023/08/07 11:21:59;;;;;;;9.57;5.03;;;13.20;99.90;;;;;;5064926;28;20193;-74
2023/08/07 11:24:30;;;;;;;11.13;5.13;;;13.30;99.90;;;;;;5067108;28;20208;-74
2023/08/07 11:27:01;;;;;;;10.02;5.20;;;13.30;99.90;;;;;;5059188;28;20193;-73
2023/08/07 11:29:36;;;;;;;9.05;4.90;;;13.30;99.90;;;;;;5054949;28;20201;-74
2023/08/07 11:32:07;;;;;;;7.63;4.38;;;13.30;99.90;;;;;;5063411;28;20573;-73
2023/08/07 11:34:38;;;;;;;7.45;4.38;;;13.30;99.90;;;;;;5064973;28;20189;-73
2023/08/07 11:37:10;;;;;;;8.43;4.88;;;13.30;99.90;;;;;;5062746;28;20660;-74
2023/08/07 11:39:46;;;;;;;7.22;4.10;;;13.30;99.90;;;;;;5059718;28;20209;-74
2023/08/07 11:42:18;;;;;;;8.48;4.10;;;13.30;99.90;;;;;;5061646;28;20193;-73
2023/08/07 11:44:50;;;;;;;5.80;3.90;;;13.30;99.90;;;;;;5066979;28;20562;-73
2023/08/07 11:47:21;;;;;;;5.45;4.05;;;13.40;99.90;;;;;;5058885;28;20208;-74
2023/08/07 11:49:54;;;;;;;6.13;4.22;;;13.40;99.90;;;;;;5056121;28;20204;-74
2023/08/07 11:52:25;;;;;;;7.55;4.28;;;13.40;99.90;;;;;;5071045;28;20212;-74
2023/08/07 11:54:57;;;;;;;6.18;4.40;;;13.40;99.90;;;;;;5065120;28;20197;-74
2023/08/07 11:57:28;;;;;;;9.80;5.00;;;13.40;99.90;;;;;;5058789;28;20198;-74
2023/08/07 12:00:03;;;;;;;7.57;4.60;;;13.40;99.90;;;;;;5055650;28;20685;-74
2023/08/07 12:02:37;;;;;;;8.13;4.82;;;13.40;99.90;;;;;;5059726;28;20258;-74
2023/08/07 12:05:13;;;;;;;6.22;4.18;;;13.40;99.90;;;;;;5065328;28;20193;-74
2023/08/07 12:07:43;;;;;;;6.05;4.15;;;13.40;99.90;;;;;;5059185;28;20221;-74
2023/08/07 12:10:14;;;;;;;6.32;4.20;;;13.30;99.90;;;;;;5058857;28;20197;-74
2023/08/07 12:12:47;;;;;;;6.43;4.30;;;13.30;99.90;;;;;;5062877;28;20196;-74
2023/08/07 12:15:20;;;;;;;7.50;4.22;;;13.30;99.90;;;;;;5065880;28;20210;-75
2023/08/07 12:17:51;;;;;;;7.40;4.22;;;13.40;99.90;;;;;;5062463;28;20208;-74
2023/08/07 12:20:21;;;;;;;8.55;4.15;;;13.30;99.90;;;;;;5060111;28;20217;-74
2023/08/07 12:22:52;;;;;;;7.25;4.43;;;13.30;99.90;;;;;;5063776;28;20559;-74
2023/08/07 12:25:23;;;;;;;5.93;4.05;;;13.40;99.90;;;;;;5061698;28;20193;-74
2023/08/07 12:27:54;;;;;;;6.15;3.97;;;13.40;99.90;;;;;;5056429;28;20201;-74
2023/08/07 12:30:27;;;;;;;5.78;3.95;;;13.30;99.90;;;;;;5062312;28;20206;-73
2023/08/07 12:32:57;;;;;;;7.32;4.25;;;13.30;99.90;;;;;;5063403;28;20303;-73
2023/08/07 12:35:28;;;;;;;7.30;4.03;;;13.30;99.90;;;;;;5063839;28;20207;-74
2023/08/07 12:37:59;;;;;;;6.93;3.95;;;13.30;99.90;;;;;;5056846;28;20571;-73
2023/08/07 12:40:30;;;;;;;5.75;3.38;;;13.30;99.90;;;;;;5054935;28;20723;-74
2023/08/07 12:43:01;;;;;;;6.20;3.25;;;13.30;99.90;;;;;;5058478;28;20193;-74
2023/08/07 12:45:34;;;;;;;5.78;3.20;;;13.30;99.90;;;;;;5058635;28;20579;-73
2023/08/07 12:48:05;;;;;;;5.68;3.10;;;13.20;99.90;;;;;;5068494;28;20193;-73
2023/08/07 12:50:35;;;;;;;5.35;2.75;;;13.20;99.90;;;;;;5070758;28;20228;-74
2023/08/07 12:53:06;;;;;;;6.57;3.30;;;13.20;99.90;;;;;;5060895;28;20205;-74
2023/08/07 12:55:37;;;;;;;7.78;3.50;;;13.10;99.90;;;;;;5072377;28;20189;-73
2023/08/07 12:58:08;;;;;;;5.78;3.25;;;13.00;99.90;;;;;;5056496;28;20201;-76
2023/08/07 13:00:40;;;;;;;6.15;3.42;;;13.00;99.90;;;;;;5065045;28;20217;-74
2023/08/07 13:03:11;;;;;;;5.18;3.03;;;13.00;99.90;;;;;;5065247;28;20232;-73
2023/08/07 13:05:42;;;;;;;4.65;2.80;;;13.00;99.90;;;;;;5064609;28;20213;-73
2023/08/07 13:08:13;;;;;;;4.47;3.20;;;13.00;99.90;;;;;;5057792;28;20653;-74